Time,TemperatureF,DewpointF,PressureIn,WindDirection,WindDirectionDegrees,WindSpeedMPH,WindSpeedGustMPH,Humidity,HourlyPrecipIn,Conditions,Clouds,dailyrainin,SoftwareType,DateUTC
2013-06-27 00:01:00,80.5,74.5,29.92,SE,131,10.4,10.4,82,0.00,CLR,,0.00,WeatherDisplay:10.37,2013-06-27 05:01:00,
2013-06-27 00:06:00,80.3,74.3,29.93,ESE,111,11.5,11.5,82,0.00,CLR,,0.00,WeatherDisplay:10.37,2013-06-27 05:06:00,
2013-06-27 00:11:00,80.1,74.5,29.93,SE,136,11.5,11.5,83,0.00,CLR,,0.00,WeatherDisplay:10.37,2013-06-27 05:11:00,
2013-06-27 00:16:00,80.0,74.7,29.93,SE,128,9.2,9.2,84,0.00,CLR,,0.00,WeatherDisplay:10.37,2013-06-27 05:16:00,
2013-06-27 00:21:00,79.8,74.5,29.93,ESE,105,11.5,11.5,84,0.00,CLR,,0.00,WeatherDisplay:10.37,2013-06-27 05:21:00,
2013-06-27 00:26:00,79.7,74.4,29.93,SE,135,11.5,11.5,84,0.00,CLR,,0.00,WeatherDisplay:10.37,2013-06-27 05:26:00,
2013-06-27 00:31:00,79.7,74.4,29.93,SE,139,13.8,13.8,84,0.00,CLR,,0.00,WeatherDisplay:10.37,2013-06-27 05:31:00,
2013-06-27 00:36:00,79.6,74.3,29.93,SSE,159,15.0,15.0,84,0.00,CLR,,0.00,WeatherDisplay:10.37,2013-06-27 05:36:00,
2013-06-27 00:41:00,79.5,74.2,29.93,SE,143,11.5,11.5,84,0.00,CLR,,0.00,WeatherDisplay:10.37,2013-06-27 05:41:00,
2013-06-27 00:46:00,79.3,74.4,29.93,SSE,153,10.4,10.4,85,0.00,CLR,,0.00,WeatherDisplay:10.37,2013-06-27 05:46:00,
2013-06-27 00:51:00,79.1,74.2,29.93,ESE,123,8.1,8.1,85,0.00,CLR,,0.00,WeatherDisplay:10.37,2013-06-27 05:51:00,
2013-06-27 00:56:00,79.0,74.1,29.93,ESE,108,8.1,8.1,85,0.00,CLR,,0.00,WeatherDisplay:10.37,2013-06-27 05:56:00,
2013-06-27 01:01:00,78.9,74.4,29.93,SE,143,9.2,9.2,86,0.00,CLR,,0.00,WeatherDisplay:10.37,2013-06-27 06:01:00,
2013-06-27 01:06:00,78.8,74.3,29.93,ESE,118,11.5,11.5,86,0.00,CLR,,0.00,WeatherDisplay:10.37,2013-06-27 06:06:00,
2013-06-27 01:11:00,78.8,74.3,29.93,SE,146,11.5,11.5,86,0.00,CLR,,0.00,WeatherDisplay:10.37,2013-06-27 06:11:00,
2013-06-27 01:16:00,78.8,74.3,29.93,South,176,9.2,9.2,86,0.00,CLR,,0.00,WeatherDisplay:10.37,2013-06-27 06:16:00,
2013-06-27 01:21:00,78.7,74.2,29.93,SSE,162,11.5,11.5,86,0.00,CLR,,0.00,WeatherDisplay:10.37,2013-06-27 06:21:00,
2013-06-27 01:26:00,78.7,74.2,29.92,South,176,11.5,11.5,86,0.00,CLR,,0.00,WeatherDisplay:10.37,2013-06-27 06:26:00,
2013-06-27 01:31:00,78.6,74.4,29.93,SSE,155,8.1,8.1,87,0.00,CLR,,0.00,WeatherDisplay:10.37,2013-06-27 06:31:00,
2013-06-27 01:36:00,78.5,74.3,29.93,SSE,162,8.1,8.1,87,0.00,CLR,,0.00,WeatherDisplay:10.37,2013-06-27 06:36:00,
2013-06-27 01:41:00,78.4,74.2,29.93,SSE,156,11.5,11.5,87,0.00,CLR,,0.00,WeatherDisplay:10.37,2013-06-27 06:41:00,
2013-06-27 01:46:00,78.4,74.2,29.92,South,169,9.2,9.2,87,0.00,CLR,,0.00,WeatherDisplay:10.37,2013-06-27 06:46:00,
2013-06-27 01:51:00,78.4,74.2,29.92,SSE,162,10.4,10.4,87,0.00,CLR,,0.00,WeatherDisplay:10.37,2013-06-27 06:51:00,
2013-06-27 01:56:00,78.4,74.2,29.92,SE,124,9.2,9.2,87,0.00,CLR,,0.00,WeatherDisplay:10.37,2013-06-27 06:56:00,
2013-06-27 02:01:00,78.3,74.1,29.92,South,179,8.1,8.1,87,0.00,CLR,,0.00,WeatherDisplay:10.37,2013-06-27 07:01:00,
2013-06-27 02:06:00,78.3,74.5,29.93,SE,144,6.9,6.9,88,0.00,CLR,,0.00,WeatherDisplay:10.37,2013-06-27 07:06:00,
2013-06-27 02:11:00,78.2,74.4,29.93,South,176,8.1,8.1,88,0.00,CLR,,0.00,WeatherDisplay:10.37,2013-06-27 07:11:00,
2013-06-27 02:16:00,78.2,74.4,29.93,SSE,148,9.2,9.2,88,0.00,CLR,,0.00,WeatherDisplay:10.37,2013-06-27 07:16:00,
2013-06-27 02:21:00,78.2,74.4,29.93,South,169,5.8,6.6,88,0.00,CLR,,0.00,WeatherDisplay:10.37,2013-06-27 07:21:00,
2013-06-27 02:26:00,78.3,74.5,29.92,South,181,10.4,10.4,88,0.00,CLR,,0.00,WeatherDisplay:10.37,2013-06-27 07:26:00,
2013-06-27 02:31:00,78.3,74.5,29.93,South,172,13.8,13.8,88,0.00,CLR,,0.00,WeatherDisplay:10.37,2013-06-27 07:31:00,
2013-06-27 02:36:00,78.3,74.5,29.92,SSE,163,11.5,11.5,88,0.00,CLR,,0.00,WeatherDisplay:10.37,2013-06-27 07:36:00,
2013-06-27 02:41:00,78.3,74.1,29.93,SSE,154,10.4,10.4,87,0.00,CLR,,0.00,WeatherDisplay:10.37,2013-06-27 07:41:00,
2013-06-27 02:46:00,78.2,74.4,29.93,South,176,9.2,9.2,88,0.00,CLR,,0.00,WeatherDisplay:10.37,2013-06-27 07:46:00,
2013-06-27 02:51:00,78.2,74.4,29.93,SE,146,11.5,11.5,88,0.00,CLR,,0.00,WeatherDisplay:10.37,2013-06-27 07:51:00,
2013-06-27 02:56:00,78.2,74.4,29.93,SSE,154,8.1,8.1,88,0.00,CLR,,0.00,WeatherDisplay:10.37,2013-06-27 07:56:00,
2013-06-27 03:01:00,78.1,74.3,29.93,SSE,159,8.1,8.1,88,0.00,CLR,,0.00,WeatherDisplay:10.37,2013-06-27 08:01:00,
2013-06-27 03:06:00,78.1,74.3,29.93,South,174,9.2,9.2,88,0.00,CLR,,0.00,WeatherDisplay:10.37,2013-06-27 08:06:00,
2013-06-27 03:11:00,78.1,74.3,29.93,SSE,148,6.9,6.9,88,0.00,CLR,,0.00,WeatherDisplay:10.37,2013-06-27 08:11:00,
2013-06-27 03:16:00,78.1,74.3,29.93,SE,145,6.0,6.0,88,0.00,CLR,,0.00,WeatherDisplay:10.37,2013-06-27 08:16:00,
2013-06-27 03:21:00,78.0,74.2,29.93,South,190,8.1,8.1,88,0.00,CLR,,0.00,WeatherDisplay:10.37,2013-06-27 08:21:00,
2013-06-27 03:26:00,78.0,74.2,29.93,South,169,10.4,10.4,88,0.00,CLR,,0.00,WeatherDisplay:10.37,2013-06-27 08:26:00,
2013-06-27 03:31:00,78.0,73.8,29.93,SSE,162,10.4,10.4,87,0.00,CLR,,0.00,WeatherDisplay:10.37,2013-06-27 08:31:00,
2013-06-27 03:36:00,78.1,73.9,29.93,SSE,166,11.5,11.5,87,0.00,CLR,,0.00,WeatherDisplay:10.37,2013-06-27 08:36:00,
2013-06-27 03:41:00,78.1,73.9,29.94,SSE,148,9.0,9.0,87,0.00,CLR,,0.00,WeatherDisplay:10.37,2013-06-27 08:41:00,
2013-06-27 03:46:00,78.1,73.9,29.93,South,169,11.5,11.5,87,0.00,CLR,,0.00,WeatherDisplay:10.37,2013-06-27 08:46:00,
2013-06-27 03:51:00,78.1,73.6,29.94,South,174,10.4,10.4,86,0.00,CLR,,0.00,WeatherDisplay:10.37,2013-06-27 08:51:00,
2013-06-27 03:56:00,78.1,73.6,29.94,SSE,165,12.7,12.7,86,0.00,CLR,,0.00,WeatherDisplay:10.37,2013-06-27 08:56:00,
2013-06-27 04:01:00,78.1,73.6,29.94,SSE,162,12.7,12.7,86,0.00,CLR,,0.00,WeatherDisplay:10.37,2013-06-27 09:01:00,
2013-06-27 04:06:00,78.1,73.6,29.94,South,179,12.7,12.7,86,0.00,CLR,,0.00,WeatherDisplay:10.37,2013-06-27 09:06:00,
2013-06-27 04:11:00,78.1,73.6,29.94,SSE,154,11.5,11.5,86,0.00,CLR,,0.00,WeatherDisplay:10.37,2013-06-27 09:11:00,
2013-06-27 04:16:00,78.0,73.5,29.94,SE,146,9.2,9.2,86,0.00,CLR,,0.00,WeatherDisplay:10.37,2013-06-27 09:16:00,
2013-06-27 04:21:00,77.9,73.4,29.94,SSE,166,6.9,6.9,86,0.00,CLR,,0.00,WeatherDisplay:10.37,2013-06-27 09:21:00,
2013-06-27 04:26:00,77.8,73.6,29.94,SSW,198,9.2,9.2,87,0.00,CLR,,0.00,WeatherDisplay:10.37,2013-06-27 09:26:00,
2013-06-27 04:31:00,77.7,73.5,29.94,South,191,9.2,9.2,87,0.00,CLR,,0.00,WeatherDisplay:10.37,2013-06-27 09:31:00,
2013-06-27 04:36:00,77.7,73.5,29.94,South,181,9.2,9.2,87,0.00,CLR,,0.00,WeatherDisplay:10.37,2013-06-27 09:36:00,
2013-06-27 04:41:00,77.6,73.4,29.94,SE,124,10.0,10.0,87,0.00,CLR,,0.00,WeatherDisplay:10.37,2013-06-27 09:41:00,
2013-06-27 04:46:00,77.6,73.4,29.94,South,174,6.9,7.2,87,0.00,CLR,,0.00,WeatherDisplay:10.37,2013-06-27 09:46:00,
2013-06-27 04:51:00,77.6,73.4,29.94,South,173,6.9,6.9,87,0.00,CLR,,0.00,WeatherDisplay:10.37,2013-06-27 09:51:00,
2013-06-27 04:56:00,77.6,73.4,29.94,SSE,163,13.8,13.8,87,0.00,CLR,,0.00,WeatherDisplay:10.37,2013-06-27 09:56:00,
2013-06-27 05:01:00,77.6,73.4,29.94,SSE,159,12.0,12.0,87,0.00,CLR,,0.00,WeatherDisplay:10.37,2013-06-27 10:01:00,
2013-06-27 05:06:00,77.6,73.4,29.94,SSW,198,11.5,11.5,87,0.00,CLR,,0.00,WeatherDisplay:10.37,2013-06-27 10:06:00,
2013-06-27 05:11:00,77.6,73.4,29.94,SSE,165,9.2,9.2,87,0.00,CLR,,0.00,WeatherDisplay:10.37,2013-06-27 10:11:00,
2013-06-27 05:16:00,77.5,73.3,29.95,SSE,150,11.5,11.5,87,0.00,CLR,,0.00,WeatherDisplay:10.37,2013-06-27 10:16:00,
2013-06-27 05:21:00,77.5,73.7,29.95,South,181,11.0,11.0,88,0.00,CLR,,0.00,WeatherDisplay:10.37,2013-06-27 10:21:00,
2013-06-27 05:26:00,77.4,73.2,29.95,SSW,201,10.4,10.4,87,0.00,CLR,,0.00,WeatherDisplay:10.37,2013-06-27 10:26:00,
2013-06-27 05:31:00,77.2,73.0,29.95,South,169,13.8,13.8,87,0.00,CLR,,0.00,WeatherDisplay:10.37,2013-06-27 10:31:00,
2013-06-27 05:36:00,77.2,73.0,29.95,South,183,11.5,11.5,87,0.00,CLR,,0.00,WeatherDisplay:10.37,2013-06-27 10:36:00,
2013-06-27 05:41:00,77.2,73.0,29.95,South,169,11.5,11.5,87,0.00,CLR,,0.00,WeatherDisplay:10.37,2013-06-27 10:41:00,
2013-06-27 05:46:00,77.2,73.0,29.95,SSE,156,11.5,11.5,87,0.00,CLR,,0.00,WeatherDisplay:10.37,2013-06-27 10:46:00,
2013-06-27 05:51:00,77.1,72.9,29.95,South,177,10.4,10.4,87,0.00,CLR,,0.00,WeatherDisplay:10.37,2013-06-27 10:51:00,
2013-06-27 05:56:00,77.0,72.8,29.95,South,183,9.2,9.2,87,0.00,CLR,,0.00,WeatherDisplay:10.37,2013-06-27 10:56:00,
2013-06-27 06:01:00,77.0,73.2,29.95,South,172,9.2,9.2,88,0.00,CLR,,0.00,WeatherDisplay:10.37,2013-06-27 11:01:00,
2013-06-27 06:06:00,76.9,73.1,29.95,South,183,5.0,5.0,88,0.00,CLR,,0.00,WeatherDisplay:10.37,2013-06-27 11:06:00,
2013-06-27 06:11:00,76.7,72.9,29.95,South,190,6.9,6.9,88,0.00,CLR,,0.00,WeatherDisplay:10.37,2013-06-27 11:11:00,
2013-06-27 06:16:00,76.6,72.8,29.96,South,176,4.6,4.6,88,0.00,CLR,,0.00,WeatherDisplay:10.37,2013-06-27 11:16:00,
2013-06-27 06:21:00,76.4,72.6,29.96,SSE,162,6.0,6.0,88,0.00,CLR,,0.00,WeatherDisplay:10.37,2013-06-27 11:21:00,
2013-06-27 06:26:00,76.3,72.8,29.96,SSE,162,3.5,3.5,89,0.00,CLR,,0.00,WeatherDisplay:10.37,2013-06-27 11:26:00,
2013-06-27 06:31:00,76.3,72.8,29.96,SSE,156,3.5,3.5,89,0.00,CLR,,0.00,WeatherDisplay:10.37,2013-06-27 11:31:00,
2013-06-27 06:36:00,76.2,72.7,29.96,South,183,3.5,3.5,89,0.00,CLR,,0.00,WeatherDisplay:10.37,2013-06-27 11:36:00,
2013-06-27 06:41:00,76.1,72.6,29.96,South,184,4.6,4.6,89,0.00,CLR,,0.00,WeatherDisplay:10.37,2013-06-27 11:41:00,
2013-06-27 06:46:00,76.1,72.6,29.96,SSE,166,3.5,3.5,89,0.00,CLR,,0.00,WeatherDisplay:10.37,2013-06-27 11:46:00,
2013-06-27 06:51:00,76.1,72.6,29.96,SSE,163,2.3,0.0,89,0.00,CLR,,0.00,WeatherDisplay:10.37,2013-06-27 11:51:00,
2013-06-27 06:56:00,76.0,72.5,29.96,South,175,2.3,2.6,89,0.00,CLR,,0.00,WeatherDisplay:10.37,2013-06-27 11:56:00,
2013-06-27 07:01:00,76.0,72.5,29.96,SSE,161,2.3,2.3,89,0.00,CLR,,0.00,WeatherDisplay:10.37,2013-06-27 12:01:00,
2013-06-27 07:06:00,75.9,72.4,29.97,SSE,160,1.1,0.0,89,0.00,CLR,,0.00,WeatherDisplay:10.37,2013-06-27 12:06:00,
2013-06-27 07:11:00,76.0,72.5,29.97,South,169,1.1,0.0,89,0.00,CLR,,0.00,WeatherDisplay:10.37,2013-06-27 12:11:00,
2013-06-27 07:16:00,76.2,72.7,29.97,South,176,0.0,0.0,89,0.00,CLR,,0.00,WeatherDisplay:10.37,2013-06-27 12:16:00,
2013-06-27 07:21:00,76.5,73.0,29.97,South,191,1.1,0.0,89,0.00,CLR,,0.00,WeatherDisplay:10.37,2013-06-27 12:21:00,
2013-06-27 07:26:00,76.5,73.0,29.97,South,176,1.0,0.0,89,0.00,CLR,,0.00,WeatherDisplay:10.37,2013-06-27 12:26:00,
2013-06-27 07:31:00,76.5,73.0,29.97,SSE,166,0.0,0.0,89,0.00,CLR,,0.00,WeatherDisplay:10.37,2013-06-27 12:31:00,
2013-06-27 07:36:00,76.6,72.8,29.98,South,184,4.6,4.6,88,0.00,CLR,,0.00,WeatherDisplay:10.37,2013-06-27 12:36:00,
2013-06-27 07:41:00,76.7,72.9,29.98,SSE,167,5.0,5.0,88,0.00,CLR,,0.00,WeatherDisplay:10.37,2013-06-27 12:41:00,
2013-06-27 07:46:00,76.8,73.0,29.98,SW,226,4.6,4.6,88,0.00,CLR,,0.00,WeatherDisplay:10.37,2013-06-27 12:46:00,
2013-06-27 07:51:00,76.9,73.1,29.98,SSE,153,5.8,5.8,88,0.00,CLR,,0.00,WeatherDisplay:10.37,2013-06-27 12:51:00,
2013-06-27 07:56:00,76.9,72.7,29.98,SSW,194,8.1,8.1,87,0.00,CLR,,0.00,WeatherDisplay:10.37,2013-06-27 12:56:00,
2013-06-27 08:01:00,77.0,72.8,29.98,South,169,8.1,8.1,87,0.00,CLR,,0.00,WeatherDisplay:10.37,2013-06-27 13:01:00,
2013-06-27 08:06:00,77.2,73.0,29.98,SSE,160,5.8,5.8,87,0.00,CLR,,0.00,WeatherDisplay:10.37,2013-06-27 13:06:00,
2013-06-27 08:11:00,77.2,72.7,29.98,SSW,197,4.6,4.7,86,0.00,CLR,,0.00,WeatherDisplay:10.37,2013-06-27 13:11:00,
2013-06-27 08:16:00,77.4,72.9,29.99,SSE,164,6.9,7.0,86,0.00,CLR,,0.00,WeatherDisplay:10.37,2013-06-27 13:16:00,
2013-06-27 08:21:00,77.6,73.1,29.99,SSW,208,9.2,9.2,86,0.00,CLR,,0.00,WeatherDisplay:10.37,2013-06-27 13:21:00,
2013-06-27 08:26:00,77.9,73.0,29.99,SSW,203,9.2,9.2,85,0.00,CLR,,0.00,WeatherDisplay:10.37,2013-06-27 13:26:00,
2013-06-27 08:31:00,77.9,73.0,29.99,SSW,207,8.1,8.1,85,0.00,CLR,,0.00,WeatherDisplay:10.37,2013-06-27 13:31:00,
2013-06-27 08:36:00,77.9,73.0,29.99,SSE,156,7.0,7.0,85,0.00,CLR,,0.00,WeatherDisplay:10.37,2013-06-27 13:36:00,
2013-06-27 08:42:00,78.3,73.4,29.99,South,179,9.2,9.2,85,0.00,CLR,,0.00,WeatherDisplay:10.37,2013-06-27 13:42:00,
2013-06-27 08:46:00,78.8,73.2,29.99,South,176,5.8,5.8,83,0.00,CLR,,0.00,WeatherDisplay:10.37,2013-06-27 13:46:00,
2013-06-27 08:51:00,79.2,73.2,29.99,SSW,205,9.2,9.2,82,0.00,CLR,,0.00,WeatherDisplay:10.37,2013-06-27 13:51:00,
2013-06-27 08:56:00,79.6,73.6,29.99,South,188,6.9,6.9,82,0.00,CLR,,0.00,WeatherDisplay:10.37,2013-06-27 13:56:00,
2013-06-27 09:01:00,79.8,73.1,29.99,SSW,195,11.5,11.5,80,0.00,CLR,,0.00,WeatherDisplay:10.37,2013-06-27 14:01:00,
2013-06-27 09:06:00,80.1,73.4,29.99,SW,225,10.4,10.4,80,0.00,CLR,,0.00,WeatherDisplay:10.37,2013-06-27 14:06:00,
2013-06-27 09:11:00,80.3,73.6,29.99,SSW,203,6.9,6.9,80,0.00,CLR,,0.00,WeatherDisplay:10.37,2013-06-27 14:11:00,
2013-06-27 09:16:00,80.7,73.2,29.99,South,172,11.5,11.5,78,0.00,CLR,,0.00,WeatherDisplay:10.37,2013-06-27 14:16:00,
2013-06-27 09:21:00,81.0,73.1,29.99,SE,146,8.1,8.1,77,0.00,CLR,,0.00,WeatherDisplay:10.37,2013-06-27 14:21:00,
2013-06-27 09:27:00,81.3,72.6,29.99,SSW,205,8.1,8.2,75,0.00,CLR,,0.00,WeatherDisplay:10.37,2013-06-27 14:27:00,
2013-06-27 09:32:00,81.9,73.2,29.99,SSE,160,10.4,10.4,75,0.00,CLR,,0.00,WeatherDisplay:10.37,2013-06-27 14:32:00,
2013-06-27 09:37:00,82.3,72.8,29.99,South,172,8.1,8.1,73,0.00,CLR,,0.00,WeatherDisplay:10.37,2013-06-27 14:37:00,
2013-06-27 09:42:00,82.6,72.7,29.99,South,188,5.8,5.8,72,0.00,CLR,,0.00,WeatherDisplay:10.37,2013-06-27 14:42:00,
2013-06-27 09:47:00,82.8,72.8,29.99,SSE,150,10.4,10.4,72,0.00,CLR,,0.00,WeatherDisplay:10.37,2013-06-27 14:47:00,
2013-06-27 09:52:00,83.0,72.2,29.99,SE,146,12.7,12.7,70,0.00,CLR,,0.00,WeatherDisplay:10.37,2013-06-27 14:52:00,
2013-06-27 09:57:00,83.3,72.1,29.99,South,172,8.1,8.1,69,0.00,CLR,,0.00,WeatherDisplay:10.37,2013-06-27 14:57:00,
2013-06-27 10:02:00,83.6,72.3,29.99,South,172,9.0,9.0,69,0.00,CLR,,0.00,WeatherDisplay:10.37,2013-06-27 15:02:00,
2013-06-27 10:07:00,83.9,72.6,29.99,SSE,166,8.1,8.1,69,0.00,CLR,,0.00,WeatherDisplay:10.37,2013-06-27 15:07:00,
2013-06-27 10:13:00,84.3,71.7,29.99,SSW,210,10.4,10.4,66,0.00,CLR,,0.00,WeatherDisplay:10.37,2013-06-27 15:13:00,
2013-06-27 10:18:00,84.7,72.1,29.98,SE,143,10.4,10.4,66,0.00,CLR,,0.00,WeatherDisplay:10.37,2013-06-27 15:18:00,
2013-06-27 10:23:00,85.2,71.6,29.98,SSW,198,5.8,6.7,64,0.00,CLR,,0.00,WeatherDisplay:10.37,2013-06-27 15:23:00,
2013-06-27 10:28:00,85.6,71.6,29.98,ESE,120,8.1,8.1,63,0.00,CLR,,0.00,WeatherDisplay:10.37,2013-06-27 15:28:00,
2013-06-27 10:34:00,85.8,71.3,29.99,South,183,10.4,10.4,62,0.00,CLR,,0.00,WeatherDisplay:10.37,2013-06-27 15:34:00,
2013-06-27 10:39:00,85.9,70.9,29.99,SSE,149,11.5,11.5,61,0.00,CLR,,0.00,WeatherDisplay:10.37,2013-06-27 15:39:00,
2013-06-27 10:44:00,85.9,70.9,29.99,SE,136,11.5,11.5,61,0.00,CLR,,0.00,WeatherDisplay:10.37,2013-06-27 15:44:00,
2013-06-27 10:49:00,86.6,71.1,29.98,SE,143,9.0,9.0,60,0.00,CLR,,0.00,WeatherDisplay:10.37,2013-06-27 15:49:00,
2013-06-27 10:54:00,86.8,70.8,29.98,South,183,12.7,12.7,59,0.00,CLR,,0.00,WeatherDisplay:10.37,2013-06-27 15:54:00,
2013-06-27 10:59:00,87.1,70.5,29.98,South,176,6.9,6.9,58,0.00,CLR,,0.00,WeatherDisplay:10.37,2013-06-27 15:59:00,
2013-06-27 11:04:00,87.2,71.1,29.98,SE,146,10.4,10.4,59,0.00,CLR,,0.00,WeatherDisplay:10.37,2013-06-27 16:04:00,
2013-06-27 11:09:00,87.5,70.4,29.98,SSE,149,10.4,10.4,57,0.00,CLR,,0.00,WeatherDisplay:10.37,2013-06-27 16:09:00,
2013-06-27 11:14:00,87.3,70.2,29.98,SE,136,8.1,8.1,57,0.00,CLR,,0.00,WeatherDisplay:10.37,2013-06-27 16:14:00,
2013-06-27 11:19:00,87.7,70.6,29.98,SE,131,8.0,8.0,57,0.00,CLR,,0.00,WeatherDisplay:10.37,2013-06-27 16:19:00,
2013-06-27 11:24:00,87.9,70.8,29.98,South,187,8.1,8.1,57,0.00,CLR,,0.00,WeatherDisplay:10.37,2013-06-27 16:24:00,
2013-06-27 11:29:00,88.5,70.8,29.97,South,187,8.1,8.1,56,0.00,CLR,,0.00,WeatherDisplay:10.37,2013-06-27 16:29:00,
2013-06-27 11:34:00,88.9,69.6,29.97,SE,126,10.4,10.4,53,0.00,CLR,,0.00,WeatherDisplay:10.37,2013-06-27 16:34:00,
2013-06-27 11:39:00,89.2,69.3,29.97,SE,146,13.0,13.0,52,0.00,CLR,,0.00,WeatherDisplay:10.37,2013-06-27 16:39:00,
2013-06-27 11:44:00,89.0,70.2,29.97,South,177,10.4,10.4,54,0.00,CLR,,0.00,WeatherDisplay:10.37,2013-06-27 16:44:00,
2013-06-27 11:49:00,89.4,69.5,29.97,SSW,203,11.5,11.5,52,0.00,CLR,,0.00,WeatherDisplay:10.37,2013-06-27 16:49:00,
2013-06-27 11:54:00,89.3,69.4,29.97,SW,217,6.9,6.9,52,0.00,CLR,,0.00,WeatherDisplay:10.37,2013-06-27 16:54:00,
2013-06-27 11:59:00,89.3,69.9,29.97,SW,231,5.8,5.8,53,0.00,CLR,,0.00,WeatherDisplay:10.37,2013-06-27 16:59:00,
2013-06-27 12:04:00,89.2,68.7,29.97,SSW,210,9.2,9.2,51,0.00,CLR,,0.00,WeatherDisplay:10.37,2013-06-27 17:04:00,
2013-06-27 12:09:00,89.6,68.5,29.97,SW,221,8.1,8.1,50,0.00,CLR,,0.00,WeatherDisplay:10.37,2013-06-27 17:09:00,
2013-06-27 12:14:00,89.3,68.8,29.97,SSE,154,9.2,9.2,51,0.00,CLR,,0.00,WeatherDisplay:10.37,2013-06-27 17:14:00,
2013-06-27 12:19:00,89.9,69.9,29.97,South,174,5.8,5.8,52,0.00,CLR,,0.00,WeatherDisplay:10.37,2013-06-27 17:19:00,
2013-06-27 12:24:00,90.5,69.3,29.97,SE,145,11.5,11.5,50,0.00,CLR,,0.00,WeatherDisplay:10.37,2013-06-27 17:24:00,
2013-06-27 12:29:00,90.6,68.8,29.96,ESE,106,5.8,5.8,49,0.00,CLR,,0.00,WeatherDisplay:10.37,2013-06-27 17:29:00,
2013-06-27 12:34:00,91.1,69.3,29.96,SSE,151,5.8,6.4,49,0.00,CLR,,0.00,WeatherDisplay:10.37,2013-06-27 17:34:00,
2013-06-27 12:39:00,91.6,67.9,29.96,SE,139,11.5,11.5,46,0.00,CLR,,0.00,WeatherDisplay:10.37,2013-06-27 17:39:00,
2013-06-27 12:44:00,91.7,68.0,29.96,South,191,9.2,9.2,46,0.00,CLR,,0.00,WeatherDisplay:10.37,2013-06-27 17:44:00,
2013-06-27 12:49:00,91.7,68.0,29.96,SSE,152,3.5,3.5,46,0.00,CLR,,0.00,WeatherDisplay:10.37,2013-06-27 17:49:00,
2013-06-27 12:54:00,91.9,67.5,29.96,South,187,3.5,3.5,45,0.00,CLR,,0.00,WeatherDisplay:10.37,2013-06-27 17:54:00,
2013-06-27 12:59:00,92.5,68.1,29.96,SW,235,11.5,11.5,45,0.00,CLR,,0.00,WeatherDisplay:10.37,2013-06-27 17:59:00,
2013-06-27 13:04:00,92.5,68.7,29.96,SW,219,10.4,10.4,46,0.00,CLR,,0.00,WeatherDisplay:10.37,2013-06-27 18:04:00,
2013-06-27 13:09:00,92.3,67.9,29.96,SSE,165,4.6,4.6,45,0.00,CLR,,0.00,WeatherDisplay:10.37,2013-06-27 18:09:00,
2013-06-27 13:14:00,93.0,65.8,29.96,SSE,166,12.7,12.7,41,0.00,CLR,,0.00,WeatherDisplay:10.37,2013-06-27 18:14:00,
2013-06-27 13:19:00,93.1,65.2,29.95,SSE,159,10.4,10.4,40,0.00,CLR,,0.00,WeatherDisplay:10.37,2013-06-27 18:19:00,
2013-06-27 13:24:00,93.7,66.4,29.95,SSE,153,6.9,6.9,41,0.00,CLR,,0.00,WeatherDisplay:10.37,2013-06-27 18:24:00,
2013-06-27 13:29:00,93.7,67.1,29.94,SSW,198,4.6,4.6,42,0.00,CLR,,0.00,WeatherDisplay:10.37,2013-06-27 18:29:00,
2013-06-27 13:34:00,94.0,67.4,29.94,South,190,5.8,5.8,42,0.00,CLR,,0.00,WeatherDisplay:10.37,2013-06-27 18:34:00,
2013-06-27 13:39:00,94.6,66.5,29.94,ENE,72,3.5,4.1,40,0.00,CLR,,0.00,WeatherDisplay:10.37,2013-06-27 18:39:00,
2013-06-27 13:44:00,94.7,66.6,29.94,SSE,148,8.1,8.1,40,0.00,CLR,,0.00,WeatherDisplay:10.37,2013-06-27 18:44:00,
2013-06-27 13:49:00,94.8,64.5,29.94,South,186,8.1,8.1,37,0.00,CLR,,0.00,WeatherDisplay:10.37,2013-06-27 18:49:00,
2013-06-27 13:54:00,94.9,64.6,29.94,ESE,119,1.1,1.1,37,0.00,CLR,,0.00,WeatherDisplay:10.37,2013-06-27 18:54:00,
2013-06-27 13:59:00,95.9,65.4,29.93,SSE,166,6.0,6.0,37,0.00,CLR,,0.00,WeatherDisplay:10.37,2013-06-27 18:59:00,
2013-06-27 14:04:00,96.0,64.7,29.93,SSW,212,8.1,8.1,36,0.00,CLR,,0.00,WeatherDisplay:10.37,2013-06-27 19:04:00,
2013-06-27 14:09:00,95.2,65.6,29.93,West,271,9.2,9.2,38,0.00,CLR,,0.00,WeatherDisplay:10.37,2013-06-27 19:09:00,
2013-06-27 14:14:00,94.5,65.7,29.93,WNW,302,6.9,6.9,39,0.00,CLR,,0.00,WeatherDisplay:10.37,2013-06-27 19:14:00,
2013-06-27 14:19:00,95.1,65.5,29.92,ENE,77,3.5,3.5,38,0.00,CLR,,0.00,WeatherDisplay:10.37,2013-06-27 19:19:00,
2013-06-27 14:24:00,95.7,65.3,29.92,SSE,156,8.1,8.1,37,0.00,CLR,,0.00,WeatherDisplay:10.37,2013-06-27 19:24:00,
2013-06-27 14:29:00,96.3,66.6,29.92,SW,222,8.1,8.1,38,0.00,CLR,,0.00,WeatherDisplay:10.37,2013-06-27 19:29:00,
2013-06-27 14:34:00,96.4,66.7,29.92,South,179,9.2,9.2,38,0.00,CLR,,0.00,WeatherDisplay:10.37,2013-06-27 19:34:00,
2013-06-27 14:39:00,96.5,66.0,29.91,WSW,238,8.0,8.0,37,0.00,CLR,,0.00,WeatherDisplay:10.37,2013-06-27 19:39:00,
2013-06-27 14:44:00,96.2,65.7,29.91,SSW,212,1.1,1.7,37,0.00,CLR,,0.00,WeatherDisplay:10.37,2013-06-27 19:44:00,
2013-06-27 14:49:00,96.6,64.5,29.91,SSE,159,11.5,11.5,35,0.00,CLR,,0.00,WeatherDisplay:10.37,2013-06-27 19:49:00,
2013-06-27 14:54:00,96.3,65.0,29.91,WNW,300,1.1,0.0,36,0.00,CLR,,0.00,WeatherDisplay:10.37,2013-06-27 19:54:00,
2013-06-27 14:59:00,96.9,64.7,29.91,ESE,120,9.2,9.2,35,0.00,CLR,,0.00,WeatherDisplay:10.37,2013-06-27 19:59:00,
2013-06-27 15:04:00,96.9,64.7,29.91,SE,135,3.5,3.5,35,0.00,CLR,,0.00,WeatherDisplay:10.37,2013-06-27 20:04:00,
2013-06-27 15:09:00,97.6,64.5,29.90,South,185,3.5,3.5,34,0.00,CLR,,0.00,WeatherDisplay:10.37,2013-06-27 20:09:00,
2013-06-27 15:14:00,98.2,64.2,29.90,South,191,2.3,2.3,33,0.00,CLR,,0.00,WeatherDisplay:10.37,2013-06-27 20:14:00,
2013-06-27 15:19:00,98.6,64.5,29.90,South,169,3.5,3.5,33,0.00,CLR,,0.00,WeatherDisplay:10.37,2013-06-27 20:19:00,
2013-06-27 15:24:00,99.2,65.0,29.90,ENE,77,5.0,5.0,33,0.00,CLR,,0.00,WeatherDisplay:10.37,2013-06-27 20:24:00,
2013-06-27 15:30:00,99.1,63.2,29.90,SE,142,10.4,10.4,31,0.00,CLR,,0.00,WeatherDisplay:10.37,2013-06-27 20:30:00,
2013-06-27 15:35:00,98.8,64.7,29.90,NE,50,3.5,3.5,33,0.00,CLR,,0.00,WeatherDisplay:10.37,2013-06-27 20:35:00,
2013-06-27 15:40:00,99.0,64.0,29.89,South,170,5.8,5.8,32,0.00,CLR,,0.00,WeatherDisplay:10.37,2013-06-27 20:40:00,
2013-06-27 15:45:00,98.5,65.3,29.89,SSE,154,5.8,5.8,34,0.00,CLR,,0.00,WeatherDisplay:10.37,2013-06-27 20:45:00,
2013-06-27 15:50:00,98.6,64.5,29.89,West,274,4.6,4.6,33,0.00,CLR,,0.00,WeatherDisplay:10.37,2013-06-27 20:50:00,
2013-06-27 15:56:00,98.7,64.6,29.89,South,179,9.2,9.2,33,0.00,CLR,,0.00,WeatherDisplay:10.37,2013-06-27 20:56:00,
2013-06-27 16:01:00,98.7,64.6,29.89,South,180,5.8,5.8,33,0.00,CLR,,0.00,WeatherDisplay:10.37,2013-06-27 21:01:00,
2013-06-27 16:06:00,98.4,64.3,29.89,West,276,3.5,3.5,33,0.00,CLR,,0.00,WeatherDisplay:10.37,2013-06-27 21:06:00,
2013-06-27 16:12:00,98.5,64.4,29.89,SW,214,5.8,5.8,33,0.00,CLR,,0.00,WeatherDisplay:10.37,2013-06-27 21:12:00,
2013-06-27 16:17:00,98.8,62.9,29.88,East,84,5.8,5.8,31,0.00,CLR,,0.00,WeatherDisplay:10.37,2013-06-27 21:17:00,
2013-06-27 16:23:00,99.4,62.5,29.88,South,186,9.2,9.2,30,0.00,CLR,,0.00,WeatherDisplay:10.37,2013-06-27 21:23:00,
2013-06-27 16:28:00,99.6,63.6,29.88,SSE,156,4.6,5.3,31,0.00,CLR,,0.00,WeatherDisplay:10.37,2013-06-27 21:28:00,
2013-06-27 16:33:00,99.9,62.0,29.88,SE,134,6.9,6.9,29,0.00,CLR,,0.00,WeatherDisplay:10.37,2013-06-27 21:33:00,
2013-06-27 16:39:00,100.3,63.3,29.88,South,172,3.5,3.5,30,0.00,CLR,,0.00,WeatherDisplay:10.37,2013-06-27 21:39:00,
2013-06-27 16:45:00,100.5,62.5,29.88,West,279,3.5,3.5,29,0.00,CLR,,0.00,WeatherDisplay:10.37,2013-06-27 21:45:00,
2013-06-27 16:51:00,100.1,63.1,29.88,NW,326,2.3,2.3,30,0.00,CLR,,0.00,WeatherDisplay:10.37,2013-06-27 21:51:00,
2013-06-27 16:56:00,100.5,62.5,29.88,ENE,61,8.1,8.1,29,0.00,CLR,,0.00,WeatherDisplay:10.37,2013-06-27 21:56:00,
2013-06-27 17:01:00,100.2,61.2,29.87,East,101,10.4,10.4,28,0.00,CLR,,0.00,WeatherDisplay:10.37,2013-06-27 22:01:00,
2013-06-27 17:06:00,100.0,60.0,29.87,SSE,153,3.5,3.5,27,0.00,CLR,,0.00,WeatherDisplay:10.37,2013-06-27 22:06:00,
2013-06-27 17:11:00,100.2,59.1,29.87,SE,124,10.4,10.4,26,0.00,CLR,,0.00,WeatherDisplay:10.37,2013-06-27 22:11:00,
2013-06-27 17:16:00,100.3,58.1,29.87,ENE,67,3.5,3.5,25,0.00,CLR,,0.00,WeatherDisplay:10.37,2013-06-27 22:16:00,
2013-06-27 17:21:00,100.6,58.4,29.87,SSW,197,4.6,4.7,25,0.00,CLR,,0.00,WeatherDisplay:10.37,2013-06-27 22:21:00,
2013-06-27 17:27:00,100.8,58.5,29.87,SE,132,1.1,1.1,25,0.00,CLR,,0.00,WeatherDisplay:10.37,2013-06-27 22:27:00,
2013-06-27 17:32:00,101.5,62.3,29.87,South,170,1.1,1.1,28,0.00,CLR,,0.00,WeatherDisplay:10.37,2013-06-27 22:32:00,
2013-06-27 17:37:00,100.4,61.4,29.87,ENE,77,4.6,5.9,28,0.00,CLR,,0.00,WeatherDisplay:10.37,2013-06-27 22:37:00,
2013-06-27 17:43:00,99.8,62.8,29.87,ENE,70,5.8,5.8,30,0.00,CLR,,0.00,WeatherDisplay:10.37,2013-06-27 22:43:00,
2013-06-27 17:48:00,99.3,63.3,29.87,NE,56,4.6,4.6,31,0.00,CLR,,0.00,WeatherDisplay:10.37,2013-06-27 22:48:00,
2013-06-27 17:53:00,99.7,61.8,29.86,East,84,5.0,5.0,29,0.00,CLR,,0.00,WeatherDisplay:10.37,2013-06-27 22:53:00,
2013-06-27 17:59:00,99.3,62.4,29.86,ENE,75,8.0,8.0,30,0.00,CLR,,0.00,WeatherDisplay:10.37,2013-06-27 22:59:00,
2013-06-27 18:04:00,99.1,61.3,29.86,ENE,69,4.6,4.6,29,0.00,CLR,,0.00,WeatherDisplay:10.37,2013-06-27 23:04:00,
2013-06-27 18:09:00,99.0,62.1,29.86,East,98,6.9,6.9,30,0.00,CLR,,0.00,WeatherDisplay:10.37,2013-06-27 23:09:00,
2013-06-27 18:14:00,99.2,62.3,29.86,NNE,30,4.6,4.6,30,0.00,CLR,,0.00,WeatherDisplay:10.37,2013-06-27 23:14:00,
2013-06-27 18:20:00,99.0,62.1,29.86,East,85,5.8,5.8,30,0.00,CLR,,0.00,WeatherDisplay:10.37,2013-06-27 23:20:00,
2013-06-27 18:25:00,99.1,62.2,29.86,NNW,333,6.9,6.9,30,0.00,CLR,,0.00,WeatherDisplay:10.37,2013-06-27 23:25:00,
2013-06-27 18:30:00,99.0,61.2,29.86,ENE,62,8.1,8.1,29,0.00,CLR,,0.00,WeatherDisplay:10.37,2013-06-27 23:30:00,
2013-06-27 18:35:00,98.8,62.0,29.86,ENE,60,8.1,8.1,30,0.00,CLR,,0.00,WeatherDisplay:10.37,2013-06-27 23:35:00,
2013-06-27 18:40:00,98.8,62.0,29.86,ENE,60,5.8,5.8,30,0.00,CLR,,0.00,WeatherDisplay:10.37,2013-06-27 23:40:00,
2013-06-27 18:45:00,98.9,62.1,29.86,East,81,5.8,5.8,30,0.00,CLR,,0.00,WeatherDisplay:10.37,2013-06-27 23:45:00,
2013-06-27 18:50:00,98.7,61.9,29.86,ENE,71,6.9,6.9,30,0.00,CLR,,0.00,WeatherDisplay:10.37,2013-06-27 23:50:00,
2013-06-27 18:56:00,98.4,61.6,29.86,ENE,68,6.9,6.9,30,0.00,CLR,,0.00,WeatherDisplay:10.37,2013-06-27 23:56:00,
2013-06-27 19:01:00,98.2,61.5,29.86,ENE,72,4.6,4.6,30,0.00,CLR,,0.00,WeatherDisplay:10.37,2013-06-28 00:01:00,
2013-06-27 19:06:00,98.2,60.5,29.86,SE,134,7.0,7.0,29,0.00,CLR,,0.00,WeatherDisplay:10.37,2013-06-28 00:06:00,
2013-06-27 19:11:00,98.7,58.9,29.86,ESE,122,5.0,5.7,27,0.00,CLR,,0.00,WeatherDisplay:10.37,2013-06-28 00:11:00,
2013-06-27 19:16:00,98.8,59.0,29.86,East,80,5.8,5.8,27,0.00,CLR,,0.00,WeatherDisplay:10.37,2013-06-28 00:16:00,
2013-06-27 19:22:00,98.6,61.8,29.86,ENE,67,3.0,3.0,30,0.00,CLR,,0.00,WeatherDisplay:10.37,2013-06-28 00:22:00,
2013-06-27 19:27:00,98.0,61.3,29.86,ENE,77,3.5,3.5,30,0.00,CLR,,0.00,WeatherDisplay:10.37,2013-06-28 00:27:00,
2013-06-27 19:32:00,97.5,61.8,29.86,East,91,3.5,3.5,31,0.00,CLR,,0.00,WeatherDisplay:10.37,2013-06-28 00:32:00,
2013-06-27 19:37:00,97.6,60.9,29.86,ESE,103,3.5,3.5,30,0.00,CLR,,0.00,WeatherDisplay:10.37,2013-06-28 00:37:00,
2013-06-27 19:43:00,97.9,60.2,29.86,East,97,3.5,3.5,29,0.00,CLR,,0.00,WeatherDisplay:10.37,2013-06-28 00:43:00,
2013-06-27 19:48:00,98.0,59.3,29.86,East,91,3.5,3.5,28,0.00,CLR,,0.00,WeatherDisplay:10.37,2013-06-28 00:48:00,
2013-06-27 19:53:00,97.3,61.6,29.86,ENE,70,2.3,2.3,31,0.00,CLR,,0.00,WeatherDisplay:10.37,2013-06-28 00:53:00,
2013-06-27 19:58:00,96.5,61.8,29.86,ENE,75,2.3,2.3,32,0.00,CLR,,0.00,WeatherDisplay:10.37,2013-06-28 00:58:00,
2013-06-27 20:03:00,96.0,62.3,29.86,East,84,2.0,2.0,33,0.00,CLR,,0.00,WeatherDisplay:10.37,2013-06-28 01:03:00,
2013-06-27 20:08:00,95.6,61.9,29.86,East,85,2.3,2.3,33,0.00,CLR,,0.00,WeatherDisplay:10.37,2013-06-28 01:08:00,
2013-06-27 20:14:00,94.9,61.3,29.86,ENE,77,3.5,3.5,33,0.00,CLR,,0.00,WeatherDisplay:10.37,2013-06-28 01:14:00,
2013-06-27 20:19:00,94.1,62.3,29.86,East,95,1.1,1.1,35,0.00,CLR,,0.00,WeatherDisplay:10.37,2013-06-28 01:19:00,
2013-06-27 20:24:00,93.5,62.5,29.86,ESE,110,2.0,2.0,36,0.00,CLR,,0.00,WeatherDisplay:10.37,2013-06-28 01:24:00,
2013-06-27 20:30:00,92.9,62.8,29.86,East,92,2.3,2.3,37,0.00,CLR,,0.00,WeatherDisplay:10.37,2013-06-28 01:30:00,
2013-06-27 20:35:00,92.3,63.0,29.86,ESE,102,1.1,1.1,38,0.00,CLR,,0.00,WeatherDisplay:10.37,2013-06-28 01:35:00,
2013-06-27 20:40:00,91.9,62.7,29.86,East,84,1.1,1.1,38,0.00,CLR,,0.00,WeatherDisplay:10.37,2013-06-28 01:40:00,
2013-06-27 20:45:00,91.7,62.5,29.86,East,79,3.5,3.5,38,0.00,CLR,,0.00,WeatherDisplay:10.37,2013-06-28 01:45:00,
2013-06-27 20:50:00,91.6,62.4,29.86,ESE,107,0.0,0.0,38,0.00,CLR,,0.00,WeatherDisplay:10.37,2013-06-28 01:50:00,
2013-06-27 20:55:00,90.9,62.5,29.86,East,92,1.1,1.1,39,0.00,CLR,,0.00,WeatherDisplay:10.37,2013-06-28 01:55:00,
2013-06-27 21:00:00,90.4,62.1,29.86,ENE,77,1.1,1.1,39,0.00,CLR,,0.00,WeatherDisplay:10.37,2013-06-28 02:00:00,
2013-06-27 21:05:00,90.2,62.6,29.86,East,101,2.3,2.3,40,0.00,CLR,,0.00,WeatherDisplay:10.37,2013-06-28 02:05:00,
2013-06-27 21:11:00,89.9,62.3,29.87,ESE,108,4.6,4.6,40,0.00,CLR,,0.00,WeatherDisplay:10.37,2013-06-28 02:11:00,
2013-06-27 21:16:00,89.9,63.0,29.87,SE,130,6.9,6.9,41,0.00,CLR,,0.00,WeatherDisplay:10.37,2013-06-28 02:16:00,
2013-06-27 21:21:00,89.9,63.0,29.87,ESE,117,6.9,6.9,41,0.00,CLR,,0.00,WeatherDisplay:10.37,2013-06-28 02:21:00,
2013-06-27 21:27:00,89.8,63.6,29.87,SE,142,5.8,5.8,42,0.00,CLR,,0.00,WeatherDisplay:10.37,2013-06-28 02:27:00,
2013-06-27 21:32:00,89.4,64.6,29.87,SSE,162,8.1,8.1,44,0.00,CLR,,0.00,WeatherDisplay:10.37,2013-06-28 02:32:00,
2013-06-27 21:37:00,89.0,67.9,29.88,SSE,153,9.2,9.2,50,0.00,CLR,,0.00,WeatherDisplay:10.37,2013-06-28 02:37:00,
2013-06-27 21:42:00,89.0,71.3,29.88,SE,146,16.1,16.1,56,0.00,CLR,,0.00,WeatherDisplay:10.37,2013-06-28 02:42:00,
2013-06-27 21:47:00,89.0,72.8,29.88,South,181,17.3,17.3,59,0.00,CLR,,0.00,WeatherDisplay:10.37,2013-06-28 02:47:00,
2013-06-27 21:53:00,88.7,73.0,29.88,ESE,119,10.4,10.4,60,0.00,CLR,,0.00,WeatherDisplay:10.37,2013-06-28 02:53:00,
2013-06-27 21:58:00,88.4,73.2,29.88,SE,146,12.7,12.7,61,0.00,CLR,,0.00,WeatherDisplay:10.37,2013-06-28 02:58:00,
2013-06-27 22:03:00,88.1,73.0,29.88,SSE,154,10.4,10.4,61,0.00,CLR,,0.00,WeatherDisplay:10.37,2013-06-28 03:03:00,
2013-06-27 22:08:00,87.7,73.1,29.88,SSE,149,12.7,12.7,62,0.00,CLR,,0.00,WeatherDisplay:10.37,2013-06-28 03:08:00,
2013-06-27 22:13:00,87.4,73.3,29.88,SE,143,11.5,11.5,63,0.00,CLR,,0.00,WeatherDisplay:10.37,2013-06-28 03:13:00,
2013-06-27 22:19:00,87.0,72.9,29.88,ESE,106,10.4,10.4,63,0.00,CLR,,0.00,WeatherDisplay:10.37,2013-06-28 03:19:00,
2013-06-27 22:24:00,86.7,73.1,29.88,SSE,160,16.1,16.1,64,0.00,CLR,,0.00,WeatherDisplay:10.37,2013-06-28 03:24:00,
2013-06-27 22:29:00,86.5,72.9,29.88,SE,139,10.4,10.4,64,0.00,CLR,,0.00,WeatherDisplay:10.37,2013-06-28 03:29:00,
2013-06-27 22:34:00,86.2,73.0,29.88,SSE,154,11.5,11.5,65,0.00,CLR,,0.00,WeatherDisplay:10.37,2013-06-28 03:34:00,
2013-06-27 22:39:00,85.9,72.8,29.89,SSE,162,13.8,13.8,65,0.00,CLR,,0.00,WeatherDisplay:10.37,2013-06-28 03:39:00,
2013-06-27 22:44:00,85.7,72.6,29.89,SE,134,10.0,10.0,65,0.00,CLR,,0.00,WeatherDisplay:10.37,2013-06-28 03:44:00,
2013-06-27 22:50:00,85.5,72.8,29.89,SSE,156,8.1,8.1,66,0.00,CLR,,0.00,WeatherDisplay:10.37,2013-06-28 03:50:00,
2013-06-27 22:55:00,85.3,72.6,29.89,SSE,153,15.0,15.0,66,0.00,CLR,,0.00,WeatherDisplay:10.37,2013-06-28 03:55:00,
2013-06-27 23:00:00,85.1,72.5,29.88,SE,146,10.4,10.4,66,0.00,CLR,,0.00,WeatherDisplay:10.37,2013-06-28 04:00:00,
2013-06-27 23:01:00,85.0,72.4,29.88,SSE,162,12.7,12.7,66,0.00,CLR,,0.00,WeatherDisplay:10.37,2013-06-28 04:01:00,
2013-06-27 23:06:00,84.7,72.1,29.88,South,177,9.2,9.2,66,0.00,CLR,,0.00,WeatherDisplay:10.37,2013-06-28 04:06:00,
2013-06-27 23:11:00,84.3,72.1,29.89,SSE,151,11.5,11.5,67,0.00,CLR,,0.00,WeatherDisplay:10.37,2013-06-28 04:11:00,
2013-06-27 23:16:00,84.1,72.0,29.89,SSE,162,9.2,9.2,67,0.00,CLR,,0.00,WeatherDisplay:10.37,2013-06-28 04:16:00,
2013-06-27 23:21:00,83.7,72.0,29.89,SE,146,9.2,9.2,68,0.00,CLR,,0.00,WeatherDisplay:10.37,2013-06-28 04:21:00,
2013-06-27 23:26:00,83.5,72.3,29.89,SSW,193,8.1,8.1,69,0.00,CLR,,0.00,WeatherDisplay:10.37,2013-06-28 04:26:00,
2013-06-27 23:31:00,83.2,72.0,29.90,South,177,9.2,9.2,69,0.00,CLR,,0.00,WeatherDisplay:10.37,2013-06-28 04:31:00,
2013-06-27 23:36:00,82.9,72.1,29.90,SSE,150,8.0,8.0,70,0.00,CLR,,0.00,WeatherDisplay:10.37,2013-06-28 04:36:00,
2013-06-27 23:41:00,82.7,72.3,29.91,SSE,159,6.9,6.9,71,0.00,CLR,,0.00,WeatherDisplay:10.37,2013-06-28 04:41:00,
2013-06-27 23:46:00,82.5,72.6,29.91,SSE,148,10.4,10.4,72,0.00,CLR,,0.00,WeatherDisplay:10.37,2013-06-28 04:46:00,
2013-06-27 23:51:00,82.3,72.4,29.91,SSE,156,8.1,8.1,72,0.00,CLR,,0.00,WeatherDisplay:10.37,2013-06-28 04:51:00,
2013-06-27 23:56:00,82.0,72.5,29.92,SSE,166,3.5,3.5,73,0.00,CLR,,0.00,WeatherDisplay:10.37,2013-06-28 04:56:00,